Time;durP1;ratioP1;P1;durP2;ratioP2;P2;SDS_P1;SDS_P2;PMS_P1;PMS_P2;Temp;Humidity;BMP_temperature;BMP_pressure;BME280_temperature;BME280_humidity;BME280_pressure;Samples;Min_cycle;Max_cycle;Signal;HPM_P1;HPM_P2
2022/06/21 00:02:22;;;;;;;;;;;;;;;20.86;88.78;98983.50;5035516;28;19928;-39
2022/06/21 00:04:48;;;;;;;;;;;;;;;20.70;88.82;98973.34;5033308;28;19921;-39
2022/06/21 00:07:19;;;;;;;;;;;;;;;20.62;89.16;98975.69;5034602;28;19983;-39
2022/06/21 00:09:44;;;;;;;;;;;;;;;20.66;89.47;98977.13;5032454;28;19978;-39
2022/06/21 00:12:11;;;;;;;;;;;;;;;20.71;88.78;98964.53;5032964;28;20416;-39
2022/06/21 00:14:37;;;;;;;;;;;;;;;20.74;89.25;98972.16;5034397;28;20820;-39
2022/06/21 00:17:02;;;;;;;;;;;;;;;20.72;89.61;98974.06;5035307;28;19974;-39
2022/06/21 00:19:30;;;;;;;;;;;;;;;20.53;89.58;98984.19;5032842;28;20008;-39
2022/06/21 00:21:55;;;;;;;;;;;;;;;20.57;89.73;98983.03;5032119;28;19927;-39
2022/06/21 00:24:20;;;;;;;;;;;;;;;20.60;89.83;98977.59;5035801;28;19925;-39
2022/06/21 00:26:46;;;;;;;;;;;;;;;20.51;89.99;98978.25;5033852;28;20010;-39
2022/06/21 00:29:11;;;;;;;;;;;;;;;20.48;90.45;98984.50;5035005;28;20066;-39
2022/06/21 00:31:37;;;;;;;;;;;;;;;20.47;91.00;98988.91;5034152;28;19958;-39
2022/06/21 00:34:12;;;;;;;;;;;;;;;20.25;91.66;98997.50;5033568;28;19928;-39
2022/06/21 00:36:38;;;;;;;;;;;;;;;20.05;90.80;98988.47;5033414;28;20397;-40
2022/06/21 00:39:03;;;;;;;;;;;;;;;20.25;91.01;98994.03;5034566;28;19925;-40
2022/06/21 00:41:49;;;;;;;;;;;;;;;20.21;89.90;98993.44;5033103;28;19975;-39
2022/06/21 00:44:15;;;;;;;;;;;;;;;20.17;91.21;98996.38;5033801;28;20016;-39
2022/06/21 00:46:48;;;;;;;;;;;;;;;20.05;91.69;98996.31;5036822;28;20429;-39
2022/06/21 00:49:16;;;;;;;;;;;;;;;20.04;91.42;98993.78;5039116;28;19921;-39
2022/06/21 00:51:42;;;;;;;;;;;;;;;20.02;91.34;98985.22;5041743;28;19921;-39
2022/06/21 00:54:17;;;;;;;;;;;;;;;20.00;91.63;98989.72;5041877;28;19958;-39
2022/06/21 00:56:51;;;;;;;;;;;;;;;19.85;92.62;98984.63;5040994;28;19921;-39
2022/06/21 00:59:27;;;;;;;;;;;;;;;19.96;92.72;98986.50;5038249;28;19931;-39
2022/06/21 01:01:59;;;;;;;;;;;;;;;19.76;93.37;98987.06;5038281;28;20011;-39
2022/06/21 01:04:37;;;;;;;;;;;;;;;19.65;94.15;98991.22;5038411;28;19920;-39
2022/06/21 01:07:03;;;;;;;;;;;;;;;19.43;93.24;98988.41;5036656;28;19928;-39
2022/06/21 01:09:36;;;;;;;;;;;;;;;19.14;94.10;98993.88;5036122;28;19921;-39
2022/06/21 01:12:18;;;;;;;;;;;;;;;18.56;96.43;98995.91;5037720;28;20516;-39
2022/06/21 01:14:47;;;;;;;;;;;;;;;18.60;98.76;98997.38;5038074;28;19920;-39
2022/06/21 01:17:12;;;;;;;;;;;;;;;18.90;96.97;98993.72;5036430;28;19928;-39
2022/06/21 01:19:37;;;;;;;;;;;;;;;18.89;96.95;98988.63;5036215;28;20390;-39
2022/06/21 01:22:09;;;;;;;;;;;;;;;18.69;97.93;98985.50;5037851;28;19924;-39
2022/06/21 01:24:43;;;;;;;;;;;;;;;18.87;98.12;98982.66;5037221;28;19920;-39
2022/06/21 01:27:08;;;;;;;;;;;;;;;18.97;97.17;98983.72;5037058;28;20005;-39
2022/06/21 01:29:35;;;;;;;;;;;;;;;19.03;95.71;98970.25;5038100;28;20548;-39
2022/06/21 01:32:01;;;;;;;;;;;;;;;19.15;96.17;98964.19;5038344;28;19928;-39
2022/06/21 01:34:27;;;;;;;;;;;;;;;19.20;95.49;98967.34;5037576;28;20036;-39
2022/06/21 01:37:04;;;;;;;;;;;;;;;18.25;96.88;98981.41;5037015;28;19924;-39
2022/06/21 01:39:32;;;;;;;;;;;;;;;17.47;100.00;98997.50;5038069;28;19923;-39
2022/06/21 01:42:02;;;;;;;;;;;;;;;18.15;100.00;98985.53;5037898;28;20440;-39
2022/06/21 01:44:32;;;;;;;;;;;;;;;18.12;100.00;98990.94;5037517;28;19988;-39
2022/06/21 01:46:58;;;;;;;;;;;;;;;18.37;100.00;98988.44;5035484;28;19925;-39
2022/06/21 01:49:25;;;;;;;;;;;;;;;18.38;100.00;98981.44;5036883;28;20635;-39
2022/06/21 01:51:55;;;;;;;;;;;;;;;17.70;100.00;98985.69;5037284;28;19970;-39
2022/06/21 01:54:21;;;;;;;;;;;;;;;17.80;100.00;98988.53;5034814;28;19991;-39
2022/06/21 01:56:46;;;;;;;;;;;;;;;18.54;100.00;98987.38;5042957;28;20008;-39
2022/06/21 01:59:13;;;;;;;;;;;;;;;18.67;100.00;98976.94;5018738;28;20343;-39
2022/06/21 02:01:43;;;;;;;;;;;;;;;18.32;100.00;98979.25;5034936;28;20630;-39
2022/06/21 02:04:09;;;;;;;;;;;;;;;18.14;100.00;98983.88;5035040;28;19921;-39
2022/06/21 02:06:37;;;;;;;;;;;;;;;18.43;100.00;98978.53;5035467;28;20209;-39
2022/06/21 02:09:04;;;;;;;;;;;;;;;18.11;100.00;98978.81;5036611;28;19931;-42
2022/06/21 02:11:33;;;;;;;;;;;;;;;18.14;100.00;98974.25;5035584;28;19936;-39
2022/06/21 02:16:45;;;;;;;;;;;;;;;18.29;100.00;98971.59;5035420;28;19955;-39
2022/06/21 02:19:13;;;;;;;;;;;;;;;18.28;100.00;98972.56;5038613;28;20389;-39
2022/06/21 02:21:40;;;;;;;;;;;;;;;17.96;100.00;98976.25;5039766;28;19928;-39
2022/06/21 02:24:06;;;;;;;;;;;;;;;18.20;100.00;98962.63;5038981;28;20143;-39
2022/06/21 02:26:32;;;;;;;;;;;;;;;18.43;100.00;98968.09;5034988;28;19925;-39
2022/06/21 02:28:58;;;;;;;;;;;;;;;18.11;100.00;98964.06;5034440;28;19960;-39
2022/06/21 02:31:24;;;;;;;;;;;;;;;18.00;100.00;98960.47;5035218;28;21083;-39
2022/06/21 02:33:50;;;;;;;;;;;;;;;17.89;100.00;98955.91;5034837;28;19925;-39
2022/06/21 02:36:26;;;;;;;;;;;;;;;18.10;100.00;98951.94;5034590;28;21014;-39
2022/06/21 02:38:54;;;;;;;;;;;;;;;18.13;100.00;98946.53;5033957;28;19924;-39
2022/06/21 02:41:22;;;;;;;;;;;;;;;18.05;100.00;98942.75;5033859;28;19921;-39
2022/06/21 02:43:51;;;;;;;;;;;;;;;17.45;100.00;98949.88;5033463;28;19920;-39
2022/06/21 02:46:18;;;;;;;;;;;;;;;17.69;100.00;98967.53;5036351;28;19925;-39
2022/06/21 02:48:44;;;;;;;;;;;;;;;17.75;100.00;98967.16;5035399;28;20019;-39
2022/06/21 02:51:17;;;;;;;;;;;;;;;17.98;100.00;98958.75;5036015;28;19928;-39
2022/06/21 02:53:45;;;;;;;;;;;;;;;17.88;100.00;98957.69;5034433;28;20381;-39
2022/06/21 02:56:15;;;;;;;;;;;;;;;17.96;100.00;98954.59;5034392;28;20046;-39
2022/06/21 02:58:43;;;;;;;;;;;;;;;17.90;100.00;98954.97;5035413;28;19921;-39
2022/06/21 03:01:17;;;;;;;;;;;;;;;17.87;100.00;98953.38;5033375;28;19921;-39
2022/06/21 03:03:42;;;;;;;;;;;;;;;17.74;100.00;98958.53;5033876;28;19928;-39
2022/06/21 03:06:08;;;;;;;;;;;;;;;17.81;100.00;98961.59;5035461;28;19920;-39
2022/06/21 03:08:33;;;;;;;;;;;;;;;17.90;100.00;98953.22;5034069;28;19927;-39
2022/06/21 03:10:59;;;;;;;;;;;;;;;17.70;100.00;98961.41;5034737;28;19963;-39
2022/06/21 03:13:25;;;;;;;;;;;;;;;17.95;100.00;98958.13;5035729;28;19921;-39
2022/06/21 03:15:52;;;;;;;;;;;;;;;17.86;100.00;98958.69;5035101;28;19924;-39
2022/06/21 03:18:20;;;;;;;;;;;;;;;17.76;100.00;98963.63;5036282;28;20027;-39
2022/06/21 03:20:46;;;;;;;;;;;;;;;17.72;100.00;98964.72;5034217;28;19921;-39
2022/06/21 03:23:12;;;;;;;;;;;;;;;17.82;100.00;98957.22;5036029;28;20378;-39
2022/06/21 03:25:40;;;;;;;;;;;;;;;17.91;100.00;98961.88;5033465;28;19947;-39
2022/06/21 03:28:24;;;;;;;;;;;;;;;17.89;100.00;98967.16;5035336;28;20094;-39
2022/06/21 03:30:51;;;;;;;;;;;;;;;17.96;100.00;98971.06;5033932;28;19925;-39
2022/06/21 03:33:16;;;;;;;;;;;;;;;17.92;100.00;98969.56;5033363;28;19974;-39
2022/06/21 03:35:42;;;;;;;;;;;;;;;17.93;100.00;98973.84;5034536;28;19925;-39
2022/06/21 03:38:07;;;;;;;;;;;;;;;17.97;100.00;98969.28;5033602;28;19920;-39
2022/06/21 03:43:19;;;;;;;;;;;;;;;17.92;100.00;98959.16;5033861;28;19927;-39
2022/06/21 03:45:44;;;;;;;;;;;;;;;18.09;100.00;98965.09;5033117;28;19947;-39
2022/06/21 03:48:22;;;;;;;;;;;;;;;18.14;100.00;98969.06;5033216;28;20334;-39
2022/06/21 03:50:55;;;;;;;;;;;;;;;18.15;100.00;98964.66;5033252;28;19967;-39
2022/06/21 03:53:24;;;;;;;;;;;;;;;18.19;100.00;98958.34;5034035;28;20317;-39
2022/06/21 03:55:53;;;;;;;;;;;;;;;18.37;100.00;98957.16;5033954;28;19926;-39
2022/06/21 03:58:21;;;;;;;;;;;;;;;18.37;100.00;98946.72;5032742;28;19921;-39
2022/06/21 04:00:49;;;;;;;;;;;;;;;18.16;100.00;98945.50;5034330;28;19975;-39
2022/06/21 04:03:21;;;;;;;;;;;;;;;18.49;100.00;98949.47;5034070;28;19921;-39
2022/06/21 04:05:54;;;;;;;;;;;;;;;18.93;100.00;98953.53;5033679;28;20051;-39
2022/06/21 04:08:22;;;;;;;;;;;;;;;18.86;100.00;98957.50;5034665;28;20351;-39
2022/06/21 04:10:56;;;;;;;;;;;;;;;18.76;100.00;98950.25;5034075;28;19921;-39
2022/06/21 04:13:31;;;;;;;;;;;;;;;19.14;100.00;98939.03;5022448;28;20015;-39
2022/06/21 04:15:56;;;;;;;;;;;;;;;19.23;100.00;98934.97;5034774;28;19975;-39
2022/06/21 04:18:21;;;;;;;;;;;;;;;19.46;100.00;98941.22;5033726;28;19947;-39
2022/06/21 04:20:50;;;;;;;;;;;;;;;19.67;100.00;98945.88;5033007;28;19955;-39
2022/06/21 04:23:30;;;;;;;;;;;;;;;19.64;100.00;98947.75;5035476;28;19916;-39
2022/06/21 04:25:58;;;;;;;;;;;;;;;19.76;100.00;98945.25;5034392;28;19928;-39
2022/06/21 04:28:27;;;;;;;;;;;;;;;19.46;100.00;98930.75;5034043;28;19963;-39
2022/06/21 04:31:05;;;;;;;;;;;;;;;19.05;100.00;98937.06;5032790;28;19968;-39
2022/06/21 04:33:53;;;;;;;;;;;;;;;18.84;100.00;98943.72;5033390;28;19916;-39
2022/06/21 04:36:20;;;;;;;;;;;;;;;19.44;100.00;98940.47;5025221;28;19929;-39
2022/06/21 04:38:47;;;;;;;;;;;;;;;19.49;100.00;98942.78;5038679;28;19942;-39
2022/06/21 04:41:17;;;;;;;;;;;;;;;19.70;100.00;98945.69;5036324;28;20012;-39
2022/06/21 04:43:45;;;;;;;;;;;;;;;20.00;100.00;98948.75;5046772;28;20036;-39
2022/06/21 04:46:12;;;;;;;;;;;;;;;19.93;100.00;98951.88;5036432;28;19921;-39
2022/06/21 04:48:43;;;;;;;;;;;;;;;20.53;100.00;98944.94;5037265;28;20444;-39
2022/06/21 04:51:21;;;;;;;;;;;;;;;20.74;100.00;98951.22;5035055;28;19927;-39
2022/06/21 04:53:55;;;;;;;;;;;;;;;20.82;100.00;98950.63;5036690;28;20007;-39
2022/06/21 04:56:20;;;;;;;;;;;;;;;21.05;100.00;98956.75;5038100;28;20034;-39
2022/06/21 04:58:46;;;;;;;;;;;;;;;21.36;100.00;98957.88;5038791;28;20739;-39
2022/06/21 05:01:29;;;;;;;;;;;;;;;21.42;100.00;98965.28;5037319;28;19921;-39
2022/06/21 05:03:55;;;;;;;;;;;;;;;21.51;100.00;98968.97;5038717;28;19920;-39
2022/06/21 05:06:21;;;;;;;;;;;;;;;21.68;100.00;98959.78;5039477;28;20136;-39
2022/06/21 05:08:47;;;;;;;;;;;;;;;21.45;100.00;98958.97;5039246;28;19956;-39
2022/06/21 05:11:12;;;;;;;;;;;;;;;21.67;100.00;98953.72;5037575;28;19952;-39
2022/06/21 05:13:38;;;;;;;;;;;;;;;21.95;100.00;98954.16;5040267;28;20369;-39
2022/06/21 05:16:06;;;;;;;;;;;;;;;22.14;99.50;98949.09;5039198;28;19943;-39
2022/06/21 05:18:36;;;;;;;;;;;;;;;21.99;100.00;98952.97;5041248;28;20267;-39
2022/06/21 05:21:02;;;;;;;;;;;;;;;22.22;99.11;98945.06;5021667;28;19921;-39
2022/06/21 05:23:28;;;;;;;;;;;;;;;22.18;96.09;98936.56;5038210;28;20585;-39
2022/06/21 05:25:54;;;;;;;;;;;;;;;21.99;99.39;98944.28;5038508;28;19925;-39
2022/06/21 05:28:28;;;;;;;;;;;;;;;21.93;100.00;98945.56;5039398;28;20753;-39
2022/06/21 05:30:54;;;;;;;;;;;;;;;22.20;98.17;98936.44;5041730;28;19921;-39
2022/06/21 05:33:23;;;;;;;;;;;;;;;21.41;99.21;98941.81;5043055;28;19956;-39
2022/06/21 05:35:48;;;;;;;;;;;;;;;21.45;98.65;98938.00;5043588;28;20074;-39
2022/06/21 05:38:19;;;;;;;;;;;;;;;21.05;100.00;98941.03;5044427;28;20015;-39
2022/06/21 05:40:47;;;;;;;;;;;;;;;21.62;95.74;98944.53;5044366;28;19917;-39
2022/06/21 05:43:14;;;;;;;;;;;;;;;21.99;93.43;98941.66;5044131;28;19921;-39
2022/06/21 05:45:39;;;;;;;;;;;;;;;21.47;95.33;98951.84;5040386;28;19951;-39
2022/06/21 05:48:08;;;;;;;;;;;;;;;22.48;91.51;98932.44;5038188;28;20000;-39
2022/06/21 05:50:34;;;;;;;;;;;;;;;21.69;93.04;98930.84;5036860;28;20350;-39
2022/06/21 05:53:05;;;;;;;;;;;;;;;21.58;95.48;98933.47;5038948;28;20032;-39
2022/06/21 05:55:33;;;;;;;;;;;;;;;21.50;96.39;98930.63;5037916;28;20526;-39
2022/06/21 05:58:00;;;;;;;;;;;;;;;21.46;93.77;98929.19;5038076;28;19923;-39
2022/06/21 06:00:30;;;;;;;;;;;;;;;19.09;100.00;98941.13;5037529;28;19921;-39
2022/06/21 06:03:01;;;;;;;;;;;;;;;20.76;100.00;98928.38;5037915;28;19920;-39
2022/06/21 06:05:27;;;;;;;;;;;;;;;20.54;98.63;98938.75;5038857;28;20390;-39
2022/06/21 06:07:54;;;;;;;;;;;;;;;20.09;100.00;98951.63;5039103;28;20012;-39
2022/06/21 06:10:20;;;;;;;;;;;;;;;22.07;97.76;98929.56;5038959;28;20265;-39
2022/06/21 06:12:46;;;;;;;;;;;;;;;22.49;93.40;98929.69;5033704;28;19920;-39
2022/06/21 06:15:25;;;;;;;;;;;;;;;21.86;94.04;98926.06;5037268;28;19978;-39
2022/06/21 06:17:52;;;;;;;;;;;;;;;21.44;97.89;98925.84;5036491;28;19928;-39
2022/06/21 06:20:24;;;;;;;;;;;;;;;21.24;96.03;98912.50;5037492;28;19916;-39
2022/06/21 06:22:51;;;;;;;;;;;;;;;19.90;100.00;98925.97;5037830;28;20435;-39
2022/06/21 06:25:19;;;;;;;;;;;;;;;21.88;99.80;98922.34;5037308;28;20161;-39
2022/06/21 06:27:57;;;;;;;;;;;;;;;21.68;98.47;98929.16;5036388;28;20377;-39
2022/06/21 06:30:33;;;;;;;;;;;;;;;22.32;95.19;98927.59;5036880;28;19936;-39
2022/06/21 06:33:16;;;;;;;;;;;;;;;22.22;94.11;98929.31;5036106;28;19921;-39
2022/06/21 06:35:43;;;;;;;;;;;;;;;22.75;93.47;98924.88;5037653;28;19947;-39
2022/06/21 06:38:10;;;;;;;;;;;;;;;21.65;96.38;98934.66;5036039;28;19931;-39
2022/06/21 06:40:36;;;;;;;;;;;;;;;22.17;97.48;98921.81;5036369;28;19967;-39
2022/06/21 06:43:07;;;;;;;;;;;;;;;21.56;98.30;98930.16;5035782;28;19921;-39
2022/06/21 06:45:33;;;;;;;;;;;;;;;20.98;100.00;98945.06;5034979;28;19994;-39
2022/06/21 06:48:03;;;;;;;;;;;;;;;21.56;97.36;98935.38;5036102;28;19920;-39
2022/06/21 06:50:33;;;;;;;;;;;;;;;20.96;100.00;98933.88;5034577;28;20405;-39
2022/06/21 06:53:01;;;;;;;;;;;;;;;21.26;97.54;98939.41;5036486;28;20019;-39
2022/06/21 06:55:26;;;;;;;;;;;;;;;21.99;97.63;98928.53;5034359;28;19925;-39
2022/06/21 06:57:53;;;;;;;;;;;;;;;22.46;96.53;98929.09;5037990;28;19920;-39
2022/06/21 07:00:20;;;;;;;;;;;;;;;23.17;92.57;98926.66;5035625;28;20058;-39
2022/06/21 07:02:48;;;;;;;;;;;;;;;23.07;89.50;98936.31;5038293;28;20014;-39
2022/06/21 07:05:19;;;;;;;;;;;;;;;23.82;86.92;98934.28;5038555;28;19916;-39
2022/06/21 07:07:55;;;;;;;;;;;;;;;22.58;89.60;98943.00;5037635;28;20408;-39
2022/06/21 07:10:22;;;;;;;;;;;;;;;23.92;85.67;98937.75;5034880;28;19920;-39
2022/06/21 07:12:48;;;;;;;;;;;;;;;23.34;88.38;98954.97;5037172;28;19964;-39
2022/06/21 07:15:13;;;;;;;;;;;;;;;23.57;87.64;98949.53;5038655;28;20036;-39
2022/06/21 07:17:40;;;;;;;;;;;;;;;23.59;91.14;98958.09;5038418;28;19923;-39
2022/06/21 07:20:12;;;;;;;;;;;;;;;23.30;90.70;98952.72;5037805;28;20945;-39
2022/06/21 07:22:37;;;;;;;;;;;;;;;23.25;87.64;98958.38;5037505;28;20007;-39
2022/06/21 07:25:15;;;;;;;;;;;;;;;22.86;87.24;98958.13;5038033;28;19974;-39
2022/06/21 07:27:41;;;;;;;;;;;;;;;24.53;81.19;98945.44;5039650;28;19923;-39
2022/06/21 07:30:10;;;;;;;;;;;;;;;23.57;89.58;98970.56;5035805;28;19978;-39
2022/06/21 07:32:40;;;;;;;;;;;;;;;23.97;83.07;98953.94;5034534;28;20000;-39
2022/06/21 07:35:09;;;;;;;;;;;;;;;24.29;81.03;98952.88;5034518;28;19933;-39
2022/06/21 07:37:41;;;;;;;;;;;;;;;24.05;81.54;98955.91;5034375;28;19923;-39
2022/06/21 07:40:10;;;;;;;;;;;;;;;24.75;75.98;98954.03;5035469;28;20745;-39
2022/06/21 07:42:45;;;;;;;;;;;;;;;24.45;77.61;98963.72;5035089;28;19947;-39
2022/06/21 07:45:13;;;;;;;;;;;;;;;25.00;74.15;98952.59;5035752;28;19925;-39
2022/06/21 07:47:40;;;;;;;;;;;;;;;25.36;70.54;98948.34;5033429;28;20388;-39
2022/06/21 07:50:13;;;;;;;;;;;;;;;24.72;71.40;98949.00;5033989;28;20297;-39
2022/06/21 07:52:41;;;;;;;;;;;;;;;26.06;65.77;98939.94;5034049;28;19944;-39
2022/06/21 07:55:29;;;;;;;;;;;;;;;26.62;57.13;98930.91;5034192;28;19924;-39
2022/06/21 07:58:15;;;;;;;;;;;;;;;23.82;73.85;98944.78;5026253;28;19921;-39
2022/06/21 08:09:08;;;;;;;;;;;;;;;25.21;62.02;98944.50;5033318;28;19970;-39
2022/06/21 08:11:33;;;;;;;;;;;;;;;26.52;61.19;98932.75;5035133;28;19923;-39
2022/06/21 08:13:59;;;;;;;;;;;;;;;27.09;62.68;98922.59;5034628;28;19917;-39
2022/06/21 08:16:27;;;;;;;;;;;;;;;27.17;56.94;98921.03;5034292;28;20702;-39
2022/06/21 08:18:58;;;;;;;;;;;;;;;26.43;60.40;98923.09;5035867;28;19920;-39
2022/06/21 08:21:26;;;;;;;;;;;;;;;26.91;60.11;98916.56;5034657;28;20765;-39
2022/06/21 08:23:55;;;;;;;;;;;;;;;27.10;57.34;98912.88;5032226;28;20015;-39
2022/06/21 08:26:28;;;;;;;;;;;;;;;26.37;64.16;98921.09;5034393;28;19917;-39
2022/06/21 08:28:55;;;;;;;;;;;;;;;25.67;63.81;98919.03;5034947;28;19924;-39
2022/06/21 08:31:46;;;;;;;;;;;;;;;25.55;67.67;98915.78;5034421;28;19917;-39
2022/06/21 08:34:16;;;;;;;;;;;;;;;27.53;61.38;98913.78;5033043;28;20416;-39
2022/06/21 08:36:43;;;;;;;;;;;;;;;26.65;56.06;98912.09;5033513;28;19916;-39
2022/06/21 08:39:28;;;;;;;;;;;;;;;25.82;61.10;98909.66;5033954;28;19917;-39
2022/06/21 08:42:01;;;;;;;;;;;;;;;27.62;55.94;98890.78;5035308;28;19928;-39
2022/06/21 08:44:38;;;;;;;;;;;;;;;26.79;58.62;98905.41;5031481;28;20401;-39
2022/06/21 08:47:24;;;;;;;;;;;;;;;26.36;59.82;98893.03;5033705;28;19974;-39
2022/06/21 08:49:55;;;;;;;;;;;;;;;27.72;55.73;98875.63;5032592;28;19920;-39
2022/06/21 08:52:23;;;;;;;;;;;;;;;25.84;58.95;98888.38;5035382;28;19916;-40
2022/06/21 08:54:54;;;;;;;;;;;;;;;24.92;71.88;98887.41;5034823;28;19991;-39
2022/06/21 08:57:32;;;;;;;;;;;;;;;25.06;66.55;98888.75;5035906;28;19987;-39
2022/06/21 09:00:01;;;;;;;;;;;;;;;26.10;64.06;98891.16;5033489;28;19917;-40
2022/06/21 09:02:29;;;;;;;;;;;;;;;26.40;57.28;98883.81;5034128;28;19921;-40
2022/06/21 09:04:57;;;;;;;;;;;;;;;28.34;54.96;98880.50;5037782;28;19917;-40
2022/06/21 09:07:34;;;;;;;;;;;;;;;26.22;56.08;98878.56;5040663;28;19921;-39
2022/06/21 09:10:16;;;;;;;;;;;;;;;27.94;56.47;98864.44;5040000;28;20298;-40
2022/06/21 09:12:42;;;;;;;;;;;;;;;27.43;57.01;98868.91;5037829;28;19916;-39
2022/06/21 09:15:13;;;;;;;;;;;;;;;28.28;55.24;98867.94;5039715;28;20738;-39
2022/06/21 09:17:44;;;;;;;;;;;;;;;27.92;59.45;98871.72;5039190;28;19942;-39
2022/06/21 09:20:09;;;;;;;;;;;;;;;27.11;55.62;98869.59;5038227;28;19924;-39
2022/06/21 09:22:57;;;;;;;;;;;;;;;25.91;59.91;98867.53;5038136;28;20489;-39
2022/06/21 09:25:26;;;;;;;;;;;;;;;27.35;62.07;98860.97;5027247;28;19932;-39
2022/06/21 09:27:52;;;;;;;;;;;;;;;28.55;57.43;98854.34;5038523;28;19920;-39
2022/06/21 09:30:17;;;;;;;;;;;;;;;28.60;52.34;98853.84;5036823;28;19924;-40
2022/06/21 09:32:58;;;;;;;;;;;;;;;28.31;56.42;98855.19;5039006;28;20290;-39
2022/06/21 09:35:37;;;;;;;;;;;;;;;27.24;56.56;98861.25;5036787;28;19921;-39
2022/06/21 09:38:16;;;;;;;;;;;;;;;26.00;58.60;98850.81;5038849;28;20577;-39
2022/06/21 09:41:00;;;;;;;;;;;;;;;28.76;51.62;98832.63;5035766;28;19923;-39
2022/06/21 09:43:25;;;;;;;;;;;;;;;28.21;53.83;98828.03;5038114;28;19917;-39
2022/06/21 09:46:00;;;;;;;;;;;;;;;26.24;60.15;98837.00;5038271;28;19921;-39
2022/06/21 09:48:25;;;;;;;;;;;;;;;27.42;59.19;98832.06;5037036;28;20039;-39
2022/06/21 09:50:59;;;;;;;;;;;;;;;29.16;51.51;98838.81;5038444;28;19921;-39
2022/06/21 09:53:31;;;;;;;;;;;;;;;28.53;53.41;98837.81;5039892;28;19923;-39
2022/06/21 09:55:56;;;;;;;;;;;;;;;30.39;46.46;98839.88;5039155;28;20459;-39
2022/06/21 09:58:29;;;;;;;;;;;;;;;30.14;46.80;98842.72;5039589;28;19920;-39
2022/06/21 10:00:58;;;;;;;;;;;;;;;29.25;46.38;98838.78;5038459;28;19920;-39
2022/06/21 10:03:26;;;;;;;;;;;;;;;28.62;50.07;98838.63;5039493;28;19917;-39
2022/06/21 10:05:51;;;;;;;;;;;;;;;29.54;44.83;98830.19;5037299;28;20271;-39
2022/06/21 10:08:22;;;;;;;;;;;;;;;30.89;44.00;98834.91;5039788;28;19951;-39
2022/06/21 10:10:48;;;;;;;;;;;;;;;30.29;45.13;98824.19;5036165;28;19955;-39
2022/06/21 10:13:16;;;;;;;;;;;;;;;29.17;47.69;98824.56;5038431;28;20401;-39
2022/06/21 10:16:17;;;;;;;;;;;;;;;28.74;51.38;98824.03;5039730;28;19921;-39
2022/06/21 10:18:54;;;;;;;;;;;;;;;29.77;45.75;98824.91;4966391;28;19924;-39
2022/06/21 10:21:22;;;;;;;;;;;;;;;29.27;49.61;98818.22;5030422;28;19921;-39
2022/06/21 10:23:47;;;;;;;;;;;;;;;30.29;49.10;98810.91;5036019;28;19928;-39
2022/06/21 10:26:26;;;;;;;;;;;;;;;30.26;48.24;98797.94;5038947;28;20248;-39
2022/06/21 10:28:57;;;;;;;;;;;;;;;29.11;45.60;98795.25;5037415;28;20066;-39
2022/06/21 10:31:25;;;;;;;;;;;;;;;28.72;50.62;98788.09;5038776;28;20158;-39
2022/06/21 10:33:50;;;;;;;;;;;;;;;27.47;50.05;98796.19;5037963;28;19924;-39
2022/06/21 10:36:22;;;;;;;;;;;;;;;27.57;57.67;98796.03;5037883;28;19920;-39
2022/06/21 10:38:51;;;;;;;;;;;;;;;28.90;51.68;98790.53;5036492;28;19920;-39
2022/06/21 10:41:35;;;;;;;;;;;;;;;27.63;54.38;98787.47;5034776;28;19972;-39
2022/06/21 10:44:23;;;;;;;;;;;;;;;28.36;55.83;98773.41;5036054;28;19966;-39
2022/06/21 10:46:49;;;;;;;;;;;;;;;30.03;48.12;98766.94;5026892;28;20437;-39
2022/06/21 10:49:35;;;;;;;;;;;;;;;28.71;46.82;98766.03;5033903;28;20186;-39
2022/06/21 10:52:06;;;;;;;;;;;;;;;29.07;50.03;98767.41;5036690;28;20003;-39
2022/06/21 10:54:34;;;;;;;;;;;;;;;28.57;48.63;98774.72;5029862;28;20302;-39
2022/06/21 10:57:18;;;;;;;;;;;;;;;26.88;57.20;98787.41;5035405;28;20408;-39
2022/06/21 11:02:30;;;;;;;;;;;;;;;27.26;60.21;98779.97;5035572;28;19931;-39
2022/06/21 11:05:02;;;;;;;;;;;;;;;27.63;56.00;98784.81;5036777;28;19916;-39
2022/06/21 11:07:41;;;;;;;;;;;;;;;26.55;53.77;98784.59;5035349;28;19970;-39
2022/06/21 11:10:11;;;;;;;;;;;;;;;26.91;53.51;98768.56;5035013;28;19972;-39
2022/06/21 11:12:54;;;;;;;;;;;;;;;28.36;53.24;98768.09;5033691;28;20004;-39
2022/06/21 11:15:22;;;;;;;;;;;;;;;28.56;50.98;98773.91;5035581;28;20010;-39
2022/06/21 11:17:47;;;;;;;;;;;;;;;30.10;48.65;98775.00;5036847;28;20463;-39
2022/06/21 11:20:16;;;;;;;;;;;;;;;29.96;47.43;98776.63;5035825;28;19921;-39
2022/06/21 11:22:50;;;;;;;;;;;;;;;29.60;48.92;98774.59;5034898;28;19928;-39
2022/06/21 11:25:22;;;;;;;;;;;;;;;30.18;48.69;98774.94;5035435;28;20408;-39
2022/06/21 11:27:50;;;;;;;;;;;;;;;30.84;45.71;98775.13;5035183;28;20031;-39
2022/06/21 11:30:22;;;;;;;;;;;;;;;29.78;46.64;98786.75;5036107;28;20401;-39
2022/06/21 11:33:00;;;;;;;;;;;;;;;31.18;40.99;98773.69;5033943;28;19968;-39
2022/06/21 11:35:42;;;;;;;;;;;;;;;31.67;44.00;98764.19;5037986;28;19924;-39
2022/06/21 11:38:22;;;;;;;;;;;;;;;31.82;42.98;98750.81;5038868;28;19913;-39
2022/06/21 11:40:53;;;;;;;;;;;;;;;31.14;42.84;98751.13;5038269;28;19917;-39
2022/06/21 11:43:24;;;;;;;;;;;;;;;30.35;45.18;98764.19;5038771;28;20083;-40
2022/06/21 11:45:49;;;;;;;;;;;;;;;30.07;43.93;98755.97;5039256;28;19924;-39
2022/06/21 11:48:33;;;;;;;;;;;;;;;29.16;44.91;98748.66;5035424;28;19982;-39
2022/06/21 11:51:01;;;;;;;;;;;;;;;30.79;43.27;98740.28;5037512;28;19959;-39
2022/06/21 11:53:35;;;;;;;;;;;;;;;30.80;42.59;98760.53;5037977;28;19920;-39
2022/06/21 11:56:06;;;;;;;;;;;;;;;30.85;40.18;98755.50;5035310;28;20763;-39
2022/06/21 11:58:32;;;;;;;;;;;;;;;30.98;42.04;98756.69;5035964;28;20039;-39
2022/06/21 12:01:03;;;;;;;;;;;;;;;31.24;42.27;98753.50;5035872;28;19969;-39
2022/06/21 12:03:40;;;;;;;;;;;;;;;32.09;38.88;98752.69;5037226;28;19964;-39
2022/06/21 12:06:20;;;;;;;;;;;;;;;32.86;41.09;98753.56;5038401;28;19921;-39
2022/06/21 12:08:45;;;;;;;;;;;;;;;31.23;40.44;98746.53;5036670;28;19928;-39
2022/06/21 12:11:29;;;;;;;;;;;;;;;30.90;42.30;98752.28;5036491;28;20340;-39
2022/06/21 12:13:54;;;;;;;;;;;;;;;31.99;38.78;98740.72;5038228;28;19917;-39
2022/06/21 12:16:19;;;;;;;;;;;;;;;31.25;39.65;98728.53;5037822;28;20739;-39
2022/06/21 12:18:48;;;;;;;;;;;;;;;32.29;38.90;98733.34;5037885;28;20478;-39
2022/06/21 12:21:14;;;;;;;;;;;;;;;31.12;38.68;98729.22;5035626;28;19916;-39
2022/06/21 12:23:44;;;;;;;;;;;;;;;32.44;38.79;98723.38;5036836;28;19917;-39
2022/06/21 12:26:19;;;;;;;;;;;;;;;34.19;38.07;98722.78;5036524;28;19921;-39
2022/06/21 12:28:45;;;;;;;;;;;;;;;32.79;39.54;98731.38;5035819;28;20983;-40
2022/06/21 12:31:12;;;;;;;;;;;;;;;31.51;39.87;98728.00;5036826;28;19917;-40
2022/06/21 12:33:38;;;;;;;;;;;;;;;30.27;44.85;98729.72;5033429;28;19965;-40
2022/06/21 12:36:07;;;;;;;;;;;;;;;31.10;42.60;98720.59;5030655;28;19984;-39
2022/06/21 12:38:33;;;;;;;;;;;;;;;32.04;39.65;98719.66;5035161;28;19920;-39
2022/06/21 12:41:05;;;;;;;;;;;;;;;31.76;42.80;98727.59;5032992;28;19943;-39
2022/06/21 12:43:42;;;;;;;;;;;;;;;31.86;40.16;98730.75;5035679;28;20339;-39
2022/06/21 12:46:17;;;;;;;;;;;;;;;32.18;44.34;98728.56;5035887;28;20449;-39
2022/06/21 12:49:01;;;;;;;;;;;;;;;32.14;40.73;98727.28;5035575;28;19921;-39
2022/06/21 12:51:33;;;;;;;;;;;;;;;30.78;40.27;98721.84;5035597;28;20325;-39
2022/06/21 12:54:05;;;;;;;;;;;;;;;30.71;41.34;98713.78;5017025;28;20394;-40
2022/06/21 12:56:53;;;;;;;;;;;;;;;32.01;40.58;98718.19;5035226;28;20014;-39
2022/06/21 12:59:37;;;;;;;;;;;;;;;30.81;44.39;98738.25;5034615;28;19923;-40
2022/06/21 13:02:02;;;;;;;;;;;;;;;30.66;46.09;98744.59;5032631;28;19925;-39
2022/06/21 13:04:46;;;;;;;;;;;;;;;31.84;44.26;98722.13;5031946;28;19920;-39
2022/06/21 13:07:15;;;;;;;;;;;;;;;31.74;43.64;98705.69;5029131;28;19921;-39
2022/06/21 13:09:40;;;;;;;;;;;;;;;31.70;42.53;98699.91;5031364;28;19921;-39
2022/06/21 13:12:17;;;;;;;;;;;;;;;32.08;40.69;98703.09;5034000;28;20014;-39
2022/06/21 13:14:43;;;;;;;;;;;;;;;32.74;41.32;98723.16;5030428;28;20897;-39
2022/06/21 13:17:20;;;;;;;;;;;;;;;33.87;38.57;98709.22;5035635;28;19917;-39